sensor_id;sensor_type;location;lat;lon;timestamp;temperature;humidity
802;DHT22;383;48.766;9.270;2023-08-21T00:00:20;25.20;89.90
802;DHT22;383;48.766;9.270;2023-08-21T00:02:47;25.20;89.90
802;DHT22;383;48.766;9.270;2023-08-21T00:05:14;25.20;89.90
802;DHT22;383;48.766;9.270;2023-08-21T00:07:42;25.20;89.80
802;DHT22;383;48.766;9.270;2023-08-21T00:10:09;25.20;89.80
802;DHT22;383;48.766;9.270;2023-08-21T00:12:38;25.20;89.80
802;DHT22;383;48.766;9.270;2023-08-21T00:15:05;25.20;89.90
802;DHT22;383;48.766;9.270;2023-08-21T00:17:32;25.10;89.90
802;DHT22;383;48.766;9.270;2023-08-21T00:19:59;25.10;90.00
802;DHT22;383;48.766;9.270;2023-08-21T00:22:26;25.10;90.00
802;DHT22;383;48.766;9.270;2023-08-21T00:24:54;25.10;90.10
802;DHT22;383;48.766;9.270;2023-08-21T00:27:20;25.10;90.20
802;DHT22;383;48.766;9.270;2023-08-21T00:29:47;25.10;90.00
802;DHT22;383;48.766;9.270;2023-08-21T00:32:14;25.10;90.20
802;DHT22;383;48.766;9.270;2023-08-21T00:34:41;25.10;90.30
802;DHT22;383;48.766;9.270;2023-08-21T00:37:08;25.10;90.30
802;DHT22;383;48.766;9.270;2023-08-21T00:39:34;25.10;90.30
802;DHT22;383;48.766;9.270;2023-08-21T00:42:02;25.00;90.40
802;DHT22;383;48.766;9.270;2023-08-21T00:44:29;25.00;90.50
802;DHT22;383;48.766;9.270;2023-08-21T00:46:56;25.00;90.60
802;DHT22;383;48.766;9.270;2023-08-21T00:49:22;25.00;90.90
802;DHT22;383;48.766;9.270;2023-08-21T00:51:50;24.90;91.00
802;DHT22;383;48.766;9.270;2023-08-21T00:54:17;24.90;91.20
802;DHT22;383;48.766;9.270;2023-08-21T00:56:45;24.90;91.30
802;DHT22;383;48.766;9.270;2023-08-21T00:59:13;24.80;91.50
802;DHT22;383;48.766;9.270;2023-08-21T01:01:40;24.80;91.40
802;DHT22;383;48.766;9.270;2023-08-21T01:04:07;24.70;91.50
802;DHT22;383;48.766;9.270;2023-08-21T01:06:34;24.70;91.70
802;DHT22;383;48.766;9.270;2023-08-21T01:09:04;24.60;91.70
802;DHT22;383;48.766;9.270;2023-08-21T01:11:43;24.70;91.60
802;DHT22;383;48.766;9.270;2023-08-21T01:14:20;24.60;91.70
802;DHT22;383;48.766;9.270;2023-08-21T01:16:52;24.60;91.90
802;DHT22;383;48.766;9.270;2023-08-21T01:19:31;24.50;92.00
802;DHT22;383;48.766;9.270;2023-08-21T01:22:02;24.40;92.40
802;DHT22;383;48.766;9.270;2023-08-21T01:24:30;24.40;92.40
802;DHT22;383;48.766;9.270;2023-08-21T01:26:57;24.40;92.40
802;DHT22;383;48.766;9.270;2023-08-21T01:29:24;24.40;92.40
802;DHT22;383;48.766;9.270;2023-08-21T01:31:55;24.40;92.30
802;DHT22;383;48.766;9.270;2023-08-21T01:34:23;24.30;92.60
802;DHT22;383;48.766;9.270;2023-08-21T01:36:51;24.30;92.70
802;DHT22;383;48.766;9.270;2023-08-21T01:39:19;24.20;92.90
802;DHT22;383;48.766;9.270;2023-08-21T01:41:47;24.20;93.00
802;DHT22;383;48.766;9.270;2023-08-21T01:44:13;24.20;93.00
802;DHT22;383;48.766;9.270;2023-08-21T01:46:40;24.20;93.10
802;DHT22;383;48.766;9.270;2023-08-21T01:49:07;24.20;93.00
802;DHT22;383;48.766;9.270;2023-08-21T01:51:33;24.20;92.70
802;DHT22;383;48.766;9.270;2023-08-21T01:54:00;24.20;92.80
802;DHT22;383;48.766;9.270;2023-08-21T01:56:26;24.10;93.00
802;DHT22;383;48.766;9.270;2023-08-21T01:58:54;24.10;93.10
802;DHT22;383;48.766;9.270;2023-08-21T02:01:21;24.10;93.00
802;DHT22;383;48.766;9.270;2023-08-21T02:03:48;24.00;93.20
802;DHT22;383;48.766;9.270;2023-08-21T02:06:15;24.00;93.40
802;DHT22;383;48.766;9.270;2023-08-21T02:08:42;23.90;93.50
802;DHT22;383;48.766;9.270;2023-08-21T02:11:08;23.90;93.60
802;DHT22;383;48.766;9.270;2023-08-21T02:13:35;23.90;93.50
802;DHT22;383;48.766;9.270;2023-08-21T02:16:03;23.80;93.80
802;DHT22;383;48.766;9.270;2023-08-21T02:18:30;23.80;94.00
802;DHT22;383;48.766;9.270;2023-08-21T02:20:57;23.80;94.30
802;DHT22;383;48.766;9.270;2023-08-21T02:23:23;23.70;94.20
802;DHT22;383;48.766;9.270;2023-08-21T02:25:50;23.70;94.10
802;DHT22;383;48.766;9.270;2023-08-21T02:28:17;23.70;94.20
802;DHT22;383;48.766;9.270;2023-08-21T02:30:45;23.70;94.20
802;DHT22;383;48.766;9.270;2023-08-21T02:33:13;23.70;94.20
802;DHT22;383;48.766;9.270;2023-08-21T02:35:40;23.70;94.10
802;DHT22;383;48.766;9.270;2023-08-21T02:38:06;23.70;94.20
802;DHT22;383;48.766;9.270;2023-08-21T02:40:33;23.70;94.20
802;DHT22;383;48.766;9.270;2023-08-21T02:43:00;23.60;94.50
802;DHT22;383;48.766;9.270;2023-08-21T02:45:26;23.60;94.60
802;DHT22;383;48.766;9.270;2023-08-21T02:47:53;23.60;94.60
802;DHT22;383;48.766;9.270;2023-08-21T02:50:21;23.60;94.60
802;DHT22;383;48.766;9.270;2023-08-21T02:52:48;23.50;94.60
802;DHT22;383;48.766;9.270;2023-08-21T02:55:15;23.50;94.80
802;DHT22;383;48.766;9.270;2023-08-21T02:57:41;23.50;94.70
802;DHT22;383;48.766;9.270;2023-08-21T03:00:09;23.40;94.80
802;DHT22;383;48.766;9.270;2023-08-21T03:02:37;23.40;94.90
802;DHT22;383;48.766;9.270;2023-08-21T03:05:04;23.40;94.90
802;DHT22;383;48.766;9.270;2023-08-21T03:07:34;23.40;95.10
802;DHT22;383;48.766;9.270;2023-08-21T03:10:01;23.30;95.10
802;DHT22;383;48.766;9.270;2023-08-21T03:12:28;23.30;95.00
802;DHT22;383;48.766;9.270;2023-08-21T03:14:55;23.30;95.00
802;DHT22;383;48.766;9.270;2023-08-21T03:17:21;23.40;94.90
802;DHT22;383;48.766;9.270;2023-08-21T03:19:48;23.30;94.90
802;DHT22;383;48.766;9.270;2023-08-21T03:22:14;23.30;94.90
802;DHT22;383;48.766;9.270;2023-08-21T03:24:43;23.40;94.80
802;DHT22;383;48.766;9.270;2023-08-21T03:27:09;23.30;94.90
802;DHT22;383;48.766;9.270;2023-08-21T03:29:36;23.30;94.80
802;DHT22;383;48.766;9.270;2023-08-21T03:32:03;23.30;94.80
802;DHT22;383;48.766;9.270;2023-08-21T03:34:30;23.20;95.20
802;DHT22;383;48.766;9.270;2023-08-21T03:36:56;23.10;95.60
802;DHT22;383;48.766;9.270;2023-08-21T03:39:23;23.00;95.80
802;DHT22;383;48.766;9.270;2023-08-21T03:41:51;23.00;95.80
802;DHT22;383;48.766;9.270;2023-08-21T03:44:18;23.00;95.80
802;DHT22;383;48.766;9.270;2023-08-21T03:46:45;22.90;95.90
802;DHT22;383;48.766;9.270;2023-08-21T03:49:11;22.90;96.20
802;DHT22;383;48.766;9.270;2023-08-21T03:51:38;22.90;96.20
802;DHT22;383;48.766;9.270;2023-08-21T03:54:05;22.90;96.30
802;DHT22;383;48.766;9.270;2023-08-21T03:56:31;22.90;96.20
802;DHT22;383;48.766;9.270;2023-08-21T03:58:59;22.90;96.30
802;DHT22;383;48.766;9.270;2023-08-21T04:01:26;22.80;96.60
802;DHT22;383;48.766;9.270;2023-08-21T04:03:53;22.80;96.60
802;DHT22;383;48.766;9.270;2023-08-21T04:06:20;22.90;96.30
802;DHT22;383;48.766;9.270;2023-08-21T04:08:47;22.90;96.00
802;DHT22;383;48.766;9.270;2023-08-21T04:11:14;22.80;96.30
802;DHT22;383;48.766;9.270;2023-08-21T04:13:41;22.80;96.30
802;DHT22;383;48.766;9.270;2023-08-21T04:16:09;22.80;96.50
802;DHT22;383;48.766;9.270;2023-08-21T04:18:37;22.70;96.60
802;DHT22;383;48.766;9.270;2023-08-21T04:21:04;22.70;96.70
802;DHT22;383;48.766;9.270;2023-08-21T04:23:30;22.70;96.60
802;DHT22;383;48.766;9.270;2023-08-21T04:26:00;22.80;96.40
802;DHT22;383;48.766;9.270;2023-08-21T04:28:29;22.80;96.30
802;DHT22;383;48.766;9.270;2023-08-21T04:30:56;22.80;96.20
802;DHT22;383;48.766;9.270;2023-08-21T04:33:24;22.80;96.20
802;DHT22;383;48.766;9.270;2023-08-21T04:35:51;22.70;96.40
802;DHT22;383;48.766;9.270;2023-08-21T04:38:18;22.70;96.50
802;DHT22;383;48.766;9.270;2023-08-21T04:40:44;22.70;96.70
802;DHT22;383;48.766;9.270;2023-08-21T04:43:11;22.70;96.70
802;DHT22;383;48.766;9.270;2023-08-21T04:45:38;22.60;96.90
802;DHT22;383;48.766;9.270;2023-08-21T04:48:05;22.60;97.10
802;DHT22;383;48.766;9.270;2023-08-21T04:50:33;22.60;97.10
802;DHT22;383;48.766;9.270;2023-08-21T04:52:59;22.60;97.10
802;DHT22;383;48.766;9.270;2023-08-21T04:55:26;22.60;97.20
802;DHT22;383;48.766;9.270;2023-08-21T04:57:53;22.60;97.20
802;DHT22;383;48.766;9.270;2023-08-21T05:00:20;22.60;97.10
802;DHT22;383;48.766;9.270;2023-08-21T05:02:46;22.60;97.10
802;DHT22;383;48.766;9.270;2023-08-21T05:05:13;22.60;97.10
802;DHT22;383;48.766;9.270;2023-08-21T05:07:41;22.60;97.20
802;DHT22;383;48.766;9.270;2023-08-21T05:10:08;22.60;97.30
802;DHT22;383;48.766;9.270;2023-08-21T05:12:35;22.70;97.00
802;DHT22;383;48.766;9.270;2023-08-21T05:15:02;22.70;97.10
802;DHT22;383;48.766;9.270;2023-08-21T05:17:29;22.70;97.30
802;DHT22;383;48.766;9.270;2023-08-21T05:19:56;22.70;97.20
802;DHT22;383;48.766;9.270;2023-08-21T05:22:23;22.70;97.20
802;DHT22;383;48.766;9.270;2023-08-21T05:24:51;22.80;97.30
802;DHT22;383;48.766;9.270;2023-08-21T05:27:17;22.80;97.10
802;DHT22;383;48.766;9.270;2023-08-21T05:29:44;22.80;97.10
802;DHT22;383;48.766;9.270;2023-08-21T05:32:11;22.90;97.10
802;DHT22;383;48.766;9.270;2023-08-21T05:34:37;22.90;97.10
802;DHT22;383;48.766;9.270;2023-08-21T05:37:04;23.00;97.10
802;DHT22;383;48.766;9.270;2023-08-21T05:39:31;23.00;96.90
802;DHT22;383;48.766;9.270;2023-08-21T05:41:59;23.00;97.00
802;DHT22;383;48.766;9.270;2023-08-21T05:44:25;23.10;97.00
802;DHT22;383;48.766;9.270;2023-08-21T05:46:52;23.10;97.20
802;DHT22;383;48.766;9.270;2023-08-21T05:49:19;23.10;97.30
802;DHT22;383;48.766;9.270;2023-08-21T05:51:45;23.10;97.40
802;DHT22;383;48.766;9.270;2023-08-21T05:54:12;23.10;97.50
802;DHT22;383;48.766;9.270;2023-08-21T05:56:39;23.20;97.50
802;DHT22;383;48.766;9.270;2023-08-21T05:59:10;23.20;97.50
802;DHT22;383;48.766;9.270;2023-08-21T06:01:37;23.30;97.10
802;DHT22;383;48.766;9.270;2023-08-21T06:04:03;23.50;96.70
802;DHT22;383;48.766;9.270;2023-08-21T06:06:30;23.40;97.00
802;DHT22;383;48.766;9.270;2023-08-21T06:08:57;23.40;97.50
802;DHT22;383;48.766;9.270;2023-08-21T06:11:23;23.50;97.50
802;DHT22;383;48.766;9.270;2023-08-21T06:13:50;23.60;97.50
802;DHT22;383;48.766;9.270;2023-08-21T06:16:18;23.60;97.60
802;DHT22;383;48.766;9.270;2023-08-21T06:18:45;23.70;97.50
802;DHT22;383;48.766;9.270;2023-08-21T06:21:11;23.80;97.30
802;DHT22;383;48.766;9.270;2023-08-21T06:23:38;23.80;97.10
802;DHT22;383;48.766;9.270;2023-08-21T06:26:05;23.90;97.10
802;DHT22;383;48.766;9.270;2023-08-21T06:28:31;24.00;97.00
802;DHT22;383;48.766;9.270;2023-08-21T06:30:58;24.00;96.90
802;DHT22;383;48.766;9.270;2023-08-21T06:33:30;24.10;96.50
802;DHT22;383;48.766;9.270;2023-08-21T06:35:57;24.10;96.60
802;DHT22;383;48.766;9.270;2023-08-21T06:38:24;24.20;96.50
802;DHT22;383;48.766;9.270;2023-08-21T06:40:50;24.40;96.30
802;DHT22;383;48.766;9.270;2023-08-21T06:43:18;24.50;96.10
802;DHT22;383;48.766;9.270;2023-08-21T06:48:42;24.60;94.90
802;DHT22;383;48.766;9.270;2023-08-21T06:51:09;24.60;94.70
802;DHT22;383;48.766;9.270;2023-08-21T06:53:35;24.70;94.40
802;DHT22;383;48.766;9.270;2023-08-21T06:56:02;24.80;94.20
802;DHT22;383;48.766;9.270;2023-08-21T06:58:29;25.00;94.10
802;DHT22;383;48.766;9.270;2023-08-21T07:00:56;25.10;93.80
802;DHT22;383;48.766;9.270;2023-08-21T07:03:23;25.20;93.60
802;DHT22;383;48.766;9.270;2023-08-21T07:05:55;25.30;92.80
802;DHT22;383;48.766;9.270;2023-08-21T07:08:22;25.40;91.40
802;DHT22;383;48.766;9.270;2023-08-21T07:10:49;25.50;91.40
802;DHT22;383;48.766;9.270;2023-08-21T07:13:16;25.60;91.40
802;DHT22;383;48.766;9.270;2023-08-21T07:15:42;25.80;90.50
802;DHT22;383;48.766;9.270;2023-08-21T07:18:09;25.80;90.40
802;DHT22;383;48.766;9.270;2023-08-21T07:20:36;25.90;89.70
802;DHT22;383;48.766;9.270;2023-08-21T07:23:04;26.00;87.80
802;DHT22;383;48.766;9.270;2023-08-21T07:25:31;26.10;86.40
802;DHT22;383;48.766;9.270;2023-08-21T07:27:58;26.20;86.30
802;DHT22;383;48.766;9.270;2023-08-21T07:30:25;26.30;85.70
802;DHT22;383;48.766;9.270;2023-08-21T07:32:53;26.40;84.90
802;DHT22;383;48.766;9.270;2023-08-21T07:35:19;26.50;84.80
802;DHT22;383;48.766;9.270;2023-08-21T07:37:47;26.60;84.10
802;DHT22;383;48.766;9.270;2023-08-21T07:40:15;26.70;84.00
802;DHT22;383;48.766;9.270;2023-08-21T07:42:41;26.80;83.60
802;DHT22;383;48.766;9.270;2023-08-21T07:45:08;26.90;83.70
802;DHT22;383;48.766;9.270;2023-08-21T07:47:35;26.90;83.60
802;DHT22;383;48.766;9.270;2023-08-21T07:50:02;27.10;83.10
802;DHT22;383;48.766;9.270;2023-08-21T07:52:29;27.20;83.60
802;DHT22;383;48.766;9.270;2023-08-21T07:54:56;27.30;82.80
802;DHT22;383;48.766;9.270;2023-08-21T07:57:26;27.40;83.40
802;DHT22;383;48.766;9.270;2023-08-21T07:59:53;27.60;83.20
802;DHT22;383;48.766;9.270;2023-08-21T08:02:20;27.70;83.00
802;DHT22;383;48.766;9.270;2023-08-21T08:04:46;27.80;82.00
802;DHT22;383;48.766;9.270;2023-08-21T08:07:13;27.90;81.80
802;DHT22;383;48.766;9.270;2023-08-21T08:09:40;28.00;81.50
802;DHT22;383;48.766;9.270;2023-08-21T08:12:07;28.20;81.20
802;DHT22;383;48.766;9.270;2023-08-21T08:14:35;28.30;80.40
802;DHT22;383;48.766;9.270;2023-08-21T08:17:02;28.40;80.40
802;DHT22;383;48.766;9.270;2023-08-21T08:19:29;28.60;78.50
802;DHT22;383;48.766;9.270;2023-08-21T08:21:55;28.70;77.80
802;DHT22;383;48.766;9.270;2023-08-21T08:24:22;28.90;77.10
802;DHT22;383;48.766;9.270;2023-08-21T08:26:49;29.00;77.40
802;DHT22;383;48.766;9.270;2023-08-21T08:29:16;29.10;77.10
802;DHT22;383;48.766;9.270;2023-08-21T08:31:44;29.20;77.30
802;DHT22;383;48.766;9.270;2023-08-21T08:34:10;29.40;76.60
802;DHT22;383;48.766;9.270;2023-08-21T08:36:37;29.40;75.30
802;DHT22;383;48.766;9.270;2023-08-21T08:39:06;29.60;74.90
802;DHT22;383;48.766;9.270;2023-08-21T08:41:38;29.70;74.00
802;DHT22;383;48.766;9.270;2023-08-21T08:44:07;29.80;74.10
802;DHT22;383;48.766;9.270;2023-08-21T08:46:34;29.90;73.40
802;DHT22;383;48.766;9.270;2023-08-21T08:49:04;30.10;72.10
802;DHT22;383;48.766;9.270;2023-08-21T08:51:33;30.20;71.30
802;DHT22;383;48.766;9.270;2023-08-21T08:54:03;30.30;70.50
802;DHT22;383;48.766;9.270;2023-08-21T08:56:30;30.30;70.90
802;DHT22;383;48.766;9.270;2023-08-21T08:58:57;30.50;70.10
802;DHT22;383;48.766;9.270;2023-08-21T09:01:23;30.60;70.10
802;DHT22;383;48.766;9.270;2023-08-21T09:03:50;30.70;69.70
802;DHT22;383;48.766;9.270;2023-08-21T09:06:18;30.90;70.10
802;DHT22;383;48.766;9.270;2023-08-21T09:08:53;31.00;68.70
802;DHT22;383;48.766;9.270;2023-08-21T09:11:20;31.10;68.00
802;DHT22;383;48.766;9.270;2023-08-21T09:13:49;31.20;66.80
802;DHT22;383;48.766;9.270;2023-08-21T09:16:17;31.20;68.20
802;DHT22;383;48.766;9.270;2023-08-21T09:18:47;31.20;67.60
802;DHT22;383;48.766;9.270;2023-08-21T09:21:17;31.20;67.10
802;DHT22;383;48.766;9.270;2023-08-21T09:23:44;31.20;68.20
802;DHT22;383;48.766;9.270;2023-08-21T09:26:11;31.30;66.40
802;DHT22;383;48.766;9.270;2023-08-21T09:28:44;31.40;67.50
802;DHT22;383;48.766;9.270;2023-08-21T09:31:11;31.60;66.60
802;DHT22;383;48.766;9.270;2023-08-21T09:33:38;31.70;65.60
802;DHT22;383;48.766;9.270;2023-08-21T09:36:05;31.80;64.60
802;DHT22;383;48.766;9.270;2023-08-21T09:38:33;31.80;65.50
802;DHT22;383;48.766;9.270;2023-08-21T09:41:00;31.90;65.10
802;DHT22;383;48.766;9.270;2023-08-21T09:43:27;32.00;64.20
802;DHT22;383;48.766;9.270;2023-08-21T09:45:55;32.00;65.40
802;DHT22;383;48.766;9.270;2023-08-21T09:48:22;32.10;64.90
802;DHT22;383;48.766;9.270;2023-08-21T09:50:50;32.30;62.10
802;DHT22;383;48.766;9.270;2023-08-21T09:53:17;32.30;62.30
802;DHT22;383;48.766;9.270;2023-08-21T09:55:46;32.40;61.00
802;DHT22;383;48.766;9.270;2023-08-21T09:58:13;32.40;60.90
802;DHT22;383;48.766;9.270;2023-08-21T10:00:40;32.40;59.70
802;DHT22;383;48.766;9.270;2023-08-21T10:03:08;32.40;60.40
802;DHT22;383;48.766;9.270;2023-08-21T10:05:37;32.50;58.60
802;DHT22;383;48.766;9.270;2023-08-21T10:08:05;32.50;58.70
802;DHT22;383;48.766;9.270;2023-08-21T10:10:34;32.50;60.60
802;DHT22;383;48.766;9.270;2023-08-21T10:13:03;32.60;59.80
802;DHT22;383;48.766;9.270;2023-08-21T10:15:31;32.50;60.20
802;DHT22;383;48.766;9.270;2023-08-21T10:18:17;32.60;60.50
802;DHT22;383;48.766;9.270;2023-08-21T10:20:44;32.60;59.70
802;DHT22;383;48.766;9.270;2023-08-21T10:23:24;32.70;60.10
802;DHT22;383;48.766;9.270;2023-08-21T10:25:55;32.70;58.50
802;DHT22;383;48.766;9.270;2023-08-21T10:28:23;32.70;57.60
802;DHT22;383;48.766;9.270;2023-08-21T10:30:50;32.80;58.00
802;DHT22;383;48.766;9.270;2023-08-21T10:33:17;32.80;57.80
802;DHT22;383;48.766;9.270;2023-08-21T10:35:44;32.90;58.00
802;DHT22;383;48.766;9.270;2023-08-21T10:38:12;33.00;58.30
802;DHT22;383;48.766;9.270;2023-08-21T10:41:04;33.10;56.90
802;DHT22;383;48.766;9.270;2023-08-21T10:43:40;33.00;58.30
802;DHT22;383;48.766;9.270;2023-08-21T10:46:09;33.10;58.50
802;DHT22;383;48.766;9.270;2023-08-21T10:48:36;33.20;56.50
802;DHT22;383;48.766;9.270;2023-08-21T10:51:05;33.40;55.90
802;DHT22;383;48.766;9.270;2023-08-21T10:53:33;33.40;56.20
802;DHT22;383;48.766;9.270;2023-08-21T10:56:01;33.50;54.60
802;DHT22;383;48.766;9.270;2023-08-21T10:58:29;33.40;55.90
802;DHT22;383;48.766;9.270;2023-08-21T11:01:01;33.50;56.70
802;DHT22;383;48.766;9.270;2023-08-21T11:03:28;33.60;55.60
802;DHT22;383;48.766;9.270;2023-08-21T11:06:03;33.60;55.10
802;DHT22;383;48.766;9.270;2023-08-21T11:08:31;33.60;54.60
802;DHT22;383;48.766;9.270;2023-08-21T11:10:58;33.70;55.10
802;DHT22;383;48.766;9.270;2023-08-21T11:13:25;33.80;53.80
802;DHT22;383;48.766;9.270;2023-08-21T11:15:57;33.70;54.70
802;DHT22;383;48.766;9.270;2023-08-21T11:18:31;33.70;54.30
802;DHT22;383;48.766;9.270;2023-08-21T11:21:05;33.70;55.20
802;DHT22;383;48.766;9.270;2023-08-21T11:23:33;33.80;54.00
802;DHT22;383;48.766;9.270;2023-08-21T11:26:00;33.80;55.10
802;DHT22;383;48.766;9.270;2023-08-21T11:28:28;33.80;54.60
802;DHT22;383;48.766;9.270;2023-08-21T11:30:56;33.90;55.70
802;DHT22;383;48.766;9.270;2023-08-21T11:33:23;34.00;55.60
802;DHT22;383;48.766;9.270;2023-08-21T11:35:51;34.10;55.10
802;DHT22;383;48.766;9.270;2023-08-21T11:38:20;34.30;54.00
802;DHT22;383;48.766;9.270;2023-08-21T11:40:54;34.40;53.40
802;DHT22;383;48.766;9.270;2023-08-21T11:43:21;34.50;53.00
802;DHT22;383;48.766;9.270;2023-08-21T11:45:48;34.30;52.90
802;DHT22;383;48.766;9.270;2023-08-21T11:48:15;34.10;54.10
802;DHT22;383;48.766;9.270;2023-08-21T11:50:48;34.20;54.50
802;DHT22;383;48.766;9.270;2023-08-21T11:53:31;34.20;54.10
802;DHT22;383;48.766;9.270;2023-08-21T11:55:58;34.30;54.00
802;DHT22;383;48.766;9.270;2023-08-21T11:58:26;34.30;54.70
802;DHT22;383;48.766;9.270;2023-08-21T12:00:53;34.50;55.60
802;DHT22;383;48.766;9.270;2023-08-21T12:03:19;34.50;52.80
802;DHT22;383;48.766;9.270;2023-08-21T12:05:46;34.50;53.60
802;DHT22;383;48.766;9.270;2023-08-21T12:08:13;34.40;53.00
802;DHT22;383;48.766;9.270;2023-08-21T12:10:41;34.30;53.30
802;DHT22;383;48.766;9.270;2023-08-21T12:13:07;34.20;54.00
802;DHT22;383;48.766;9.270;2023-08-21T12:15:34;34.20;53.10
802;DHT22;383;48.766;9.270;2023-08-21T12:18:01;34.20;53.40
802;DHT22;383;48.766;9.270;2023-08-21T12:20:27;34.30;53.90
802;DHT22;383;48.766;9.270;2023-08-21T12:22:55;34.50;53.90
802;DHT22;383;48.766;9.270;2023-08-21T12:25:21;34.60;53.00
802;DHT22;383;48.766;9.270;2023-08-21T12:27:50;34.70;53.50
802;DHT22;383;48.766;9.270;2023-08-21T12:30:17;34.70;52.00
802;DHT22;383;48.766;9.270;2023-08-21T12:32:44;34.90;52.10
802;DHT22;383;48.766;9.270;2023-08-21T12:35:14;34.90;50.00
802;DHT22;383;48.766;9.270;2023-08-21T12:37:40;35.10;51.80
802;DHT22;383;48.766;9.270;2023-08-21T12:40:07;35.20;51.40
802;DHT22;383;48.766;9.270;2023-08-21T12:42:34;35.10;50.80
802;DHT22;383;48.766;9.270;2023-08-21T12:45:03;34.90;51.30
802;DHT22;383;48.766;9.270;2023-08-21T12:47:30;34.80;51.30
802;DHT22;383;48.766;9.270;2023-08-21T12:49:58;34.70;51.50
802;DHT22;383;48.766;9.270;2023-08-21T12:52:25;34.70;52.40
802;DHT22;383;48.766;9.270;2023-08-21T12:54:51;34.70;51.80
802;DHT22;383;48.766;9.270;2023-08-21T12:57:18;34.90;51.40
802;DHT22;383;48.766;9.270;2023-08-21T12:59:45;34.90;51.00
802;DHT22;383;48.766;9.270;2023-08-21T13:02:13;35.00;50.50
802;DHT22;383;48.766;9.270;2023-08-21T13:04:39;35.20;50.40
802;DHT22;383;48.766;9.270;2023-08-21T13:07:06;35.30;50.40
802;DHT22;383;48.766;9.270;2023-08-21T13:09:32;35.20;49.70
802;DHT22;383;48.766;9.270;2023-08-21T13:12:00;35.30;50.30
802;DHT22;383;48.766;9.270;2023-08-21T13:14:27;35.50;49.70
802;DHT22;383;48.766;9.270;2023-08-21T13:16:53;35.60;49.70
802;DHT22;383;48.766;9.270;2023-08-21T13:19:21;35.50;49.80
802;DHT22;383;48.766;9.270;2023-08-21T13:21:48;35.60;49.40
802;DHT22;383;48.766;9.270;2023-08-21T13:24:15;35.70;49.90
802;DHT22;383;48.766;9.270;2023-08-21T13:26:41;35.80;49.80
802;DHT22;383;48.766;9.270;2023-08-21T13:29:09;36.00;49.00
802;DHT22;383;48.766;9.270;2023-08-21T13:31:35;36.10;48.80
802;DHT22;383;48.766;9.270;2023-08-21T13:34:02;36.10;48.90
802;DHT22;383;48.766;9.270;2023-08-21T13:36:30;36.00;48.80
802;DHT22;383;48.766;9.270;2023-08-21T13:38:57;35.90;48.70
802;DHT22;383;48.766;9.270;2023-08-21T13:41:24;35.80;48.90
802;DHT22;383;48.766;9.270;2023-08-21T13:43:50;35.70;49.80
802;DHT22;383;48.766;9.270;2023-08-21T13:46:19;35.60;50.50
802;DHT22;383;48.766;9.270;2023-08-21T13:48:46;35.60;49.80
802;DHT22;383;48.766;9.270;2023-08-21T13:51:12;35.50;50.40
802;DHT22;383;48.766;9.270;2023-08-21T13:53:40;35.70;50.00
802;DHT22;383;48.766;9.270;2023-08-21T13:56:07;35.70;50.00
802;DHT22;383;48.766;9.270;2023-08-21T13:58:34;35.90;49.70
802;DHT22;383;48.766;9.270;2023-08-21T14:01:00;35.90;49.00
802;DHT22;383;48.766;9.270;2023-08-21T14:03:27;36.00;49.30
802;DHT22;383;48.766;9.270;2023-08-21T14:05:54;36.00;48.90
802;DHT22;383;48.766;9.270;2023-08-21T14:08:20;36.10;48.70
802;DHT22;383;48.766;9.270;2023-08-21T14:10:51;36.20;48.80
802;DHT22;383;48.766;9.270;2023-08-21T14:13:18;36.10;48.40
802;DHT22;383;48.766;9.270;2023-08-21T14:15:44;36.20;48.60
802;DHT22;383;48.766;9.270;2023-08-21T14:18:11;36.40;48.30
802;DHT22;383;48.766;9.270;2023-08-21T14:20:38;36.60;48.20
802;DHT22;383;48.766;9.270;2023-08-21T14:23:05;36.50;46.90
802;DHT22;383;48.766;9.270;2023-08-21T14:25:32;36.40;47.10
802;DHT22;383;48.766;9.270;2023-08-21T14:28:00;36.30;47.60
802;DHT22;383;48.766;9.270;2023-08-21T14:30:27;36.00;47.80
802;DHT22;383;48.766;9.270;2023-08-21T14:32:53;35.80;48.20
802;DHT22;383;48.766;9.270;2023-08-21T14:35:20;35.70;49.00
802;DHT22;383;48.766;9.270;2023-08-21T14:37:47;35.50;49.50
802;DHT22;383;48.766;9.270;2023-08-21T14:40:13;35.40;49.50
802;DHT22;383;48.766;9.270;2023-08-21T14:42:41;35.40;49.70
802;DHT22;383;48.766;9.270;2023-08-21T14:45:10;35.60;49.00
802;DHT22;383;48.766;9.270;2023-08-21T14:47:36;35.80;48.90
802;DHT22;383;48.766;9.270;2023-08-21T14:50:04;35.90;50.00
802;DHT22;383;48.766;9.270;2023-08-21T14:52:31;36.10;48.90
802;DHT22;383;48.766;9.270;2023-08-21T14:54:58;36.10;48.70
802;DHT22;383;48.766;9.270;2023-08-21T14:57:24;36.20;47.70
802;DHT22;383;48.766;9.270;2023-08-21T14:59:51;36.40;47.10
802;DHT22;383;48.766;9.270;2023-08-21T15:02:19;36.40;47.80
802;DHT22;383;48.766;9.270;2023-08-21T15:04:45;36.40;47.20
802;DHT22;383;48.766;9.270;2023-08-21T15:07:12;36.40;46.90
802;DHT22;383;48.766;9.270;2023-08-21T15:09:39;36.50;47.30
802;DHT22;383;48.766;9.270;2023-08-21T15:12:07;36.50;46.70
802;DHT22;383;48.766;9.270;2023-08-21T15:14:34;36.40;47.30
802;DHT22;383;48.766;9.270;2023-08-21T15:17:01;36.40;47.60
802;DHT22;383;48.766;9.270;2023-08-21T15:19:29;36.30;47.40
802;DHT22;383;48.766;9.270;2023-08-21T15:21:56;36.40;47.10
802;DHT22;383;48.766;9.270;2023-08-21T15:24:23;36.40;47.60
802;DHT22;383;48.766;9.270;2023-08-21T15:26:49;36.30;47.20
802;DHT22;383;48.766;9.270;2023-08-21T15:29:16;36.20;47.10
802;DHT22;383;48.766;9.270;2023-08-21T15:31:43;36.20;47.80
802;DHT22;383;48.766;9.270;2023-08-21T15:34:09;36.20;47.40
802;DHT22;383;48.766;9.270;2023-08-21T15:36:37;36.20;47.10
802;DHT22;383;48.766;9.270;2023-08-21T15:39:04;36.20;47.20
802;DHT22;383;48.766;9.270;2023-08-21T15:41:31;36.20;48.20
802;DHT22;383;48.766;9.270;2023-08-21T15:43:57;36.10;47.60
802;DHT22;383;48.766;9.270;2023-08-21T15:46:24;35.90;48.10
802;DHT22;383;48.766;9.270;2023-08-21T15:48:51;35.90;48.30
802;DHT22;383;48.766;9.270;2023-08-21T15:51:17;35.90;48.30
802;DHT22;383;48.766;9.270;2023-08-21T15:53:45;35.90;47.80
802;DHT22;383;48.766;9.270;2023-08-21T15:56:12;35.70;48.20
802;DHT22;383;48.766;9.270;2023-08-21T15:58:39;35.50;49.00
802;DHT22;383;48.766;9.270;2023-08-21T16:01:05;35.50;49.40
802;DHT22;383;48.766;9.270;2023-08-21T16:03:32;35.30;49.30
802;DHT22;383;48.766;9.270;2023-08-21T16:05:59;35.20;49.70
802;DHT22;383;48.766;9.270;2023-08-21T16:08:26;34.90;50.40
802;DHT22;383;48.766;9.270;2023-08-21T16:10:54;34.80;50.80
802;DHT22;383;48.766;9.270;2023-08-21T16:13:20;34.70;50.80
802;DHT22;383;48.766;9.270;2023-08-21T16:15:47;34.50;50.90
802;DHT22;383;48.766;9.270;2023-08-21T16:18:14;34.30;51.40
802;DHT22;383;48.766;9.270;2023-08-21T16:20:41;34.20;51.50
802;DHT22;383;48.766;9.270;2023-08-21T16:23:08;34.20;51.90
802;DHT22;383;48.766;9.270;2023-08-21T16:25:34;34.00;52.40
802;DHT22;383;48.766;9.270;2023-08-21T16:28:03;33.80;52.60
802;DHT22;383;48.766;9.270;2023-08-21T16:30:29;33.70;53.00
802;DHT22;383;48.766;9.270;2023-08-21T16:32:56;33.60;54.10
802;DHT22;383;48.766;9.270;2023-08-21T16:35:23;33.50;53.80
802;DHT22;383;48.766;9.270;2023-08-21T16:37:50;33.50;54.10